createdAt,value
2017-04-06T00:01:06.435Z,0
2017-04-06T00:02:15.637Z,0
2017-04-06T00:03:24.580Z,0
2017-04-06T00:04:33.530Z,0
2017-04-06T00:05:42.486Z,0
2017-04-06T00:06:51.438Z,0
2017-04-06T00:08:00.638Z,0
2017-04-06T00:09:09.594Z,0
2017-04-06T00:10:18.545Z,0
2017-04-06T00:11:27.503Z,0
2017-04-06T00:12:36.450Z,0
2017-04-06T00:13:45.647Z,0
2017-04-06T00:14:54.610Z,0
2017-04-06T00:16:03.567Z,0
2017-04-06T00:17:12.518Z,0
2017-04-06T00:18:21.471Z,0
2017-04-06T00:19:30.675Z,0
2017-04-06T00:20:39.631Z,0
2017-04-06T00:21:48.582Z,0
2017-04-06T00:22:57.536Z,0
2017-04-06T00:24:06.490Z,0
2017-04-06T00:25:15.692Z,0
2017-04-06T00:26:24.643Z,0
2017-04-06T00:27:33.595Z,0
2017-04-06T00:28:42.546Z,0
2017-04-06T00:29:51.500Z,0
2017-04-06T00:31:00.700Z,0
2017-04-06T00:32:09.649Z,0
2017-04-06T00:33:18.602Z,0
2017-04-06T00:34:27.877Z,0
2017-04-06T00:35:36.833Z,0
2017-04-06T00:36:46.036Z,0
2017-04-06T00:37:54.982Z,0
2017-04-06T00:39:03.930Z,0
2017-04-06T00:40:12.885Z,0
2017-04-06T00:41:21.835Z,0
2017-04-06T00:42:31.042Z,0
2017-04-06T00:43:39.992Z,0
2017-04-06T00:44:48.942Z,0
2017-04-06T00:45:57.900Z,0
2017-04-06T00:47:06.854Z,0
2017-04-06T00:48:16.054Z,0
2017-04-06T00:49:25.003Z,0
2017-04-06T00:50:33.956Z,0
2017-04-06T00:51:42.908Z,0
2017-04-06T00:52:51.859Z,0
2017-04-06T00:54:01.056Z,0
2017-04-06T00:55:10.005Z,0
2017-04-06T00:56:18.957Z,0
2017-04-06T00:57:27.910Z,0
2017-04-06T00:58:36.855Z,0
2017-04-06T00:59:46.057Z,0
2017-04-06T01:00:55.010Z,0
2017-04-06T01:02:03.965Z,0
2017-04-06T01:03:12.924Z,0
2017-04-06T01:04:21.879Z,0
2017-04-06T01:05:31.083Z,0
2017-04-06T01:06:40.046Z,0
2017-04-06T01:07:49.004Z,0
2017-04-06T01:08:57.954Z,0
2017-04-06T01:10:06.910Z,0
2017-04-06T01:11:16.117Z,0
2017-04-06T01:12:25.065Z,0
2017-04-06T01:13:34.018Z,0
2017-04-06T01:14:42.999Z,0
2017-04-06T01:15:51.953Z,0
2017-04-06T01:17:01.161Z,0
2017-04-06T01:18:10.114Z,0
2017-04-06T01:19:19.068Z,0
2017-04-06T01:20:28.018Z,0
2017-04-06T01:21:36.973Z,0
2017-04-06T01:22:46.221Z,0
2017-04-06T01:23:55.175Z,0
2017-04-06T01:25:04.122Z,0
2017-04-06T01:26:13.078Z,0
2017-04-06T01:27:22.030Z,0
2017-04-06T01:28:31.229Z,0
2017-04-06T01:29:40.518Z,0
2017-04-06T01:30:49.469Z,0
2017-04-06T01:31:58.428Z,0
2017-04-06T01:33:07.383Z,0
2017-04-06T01:34:16.908Z,0
2017-04-06T01:35:25.869Z,0
2017-04-06T01:36:34.822Z,0
2017-04-06T01:37:43.774Z,0
2017-04-06T01:38:52.728Z,0
2017-04-06T01:40:01.929Z,0
2017-04-06T01:41:10.885Z,0
2017-04-06T01:42:19.841Z,0
2017-04-06T01:43:28.792Z,0
2017-04-06T01:44:37.743Z,0
2017-04-06T01:45:46.956Z,0
2017-04-06T01:46:55.908Z,0
2017-04-06T01:48:04.947Z,0
2017-04-06T01:49:13.988Z,0
2017-04-06T01:50:22.970Z,0
2017-04-06T01:51:32.184Z,0
2017-04-06T01:52:41.138Z,0
2017-04-06T01:53:50.097Z,0
2017-04-06T01:54:59.136Z,0
2017-04-06T01:56:08.087Z,0
2017-04-06T01:57:17.288Z,0
2017-04-06T01:58:26.238Z,0
2017-04-06T01:59:35.523Z,0
2017-04-06T02:00:44.485Z,0
2017-04-06T02:01:53.528Z,0
2017-04-06T02:03:02.730Z,0
2017-04-06T02:04:11.692Z,0
2017-04-06T02:05:20.649Z,0
2017-04-06T02:06:29.608Z,0
2017-04-06T02:07:38.564Z,0
2017-04-06T02:08:47.763Z,0
2017-04-06T02:09:56.713Z,0
2017-04-06T02:11:05.659Z,0
2017-04-06T02:12:14.611Z,0
2017-04-06T02:13:23.563Z,0
2017-04-06T02:14:32.762Z,0
2017-04-06T02:15:41.718Z,0
2017-04-06T02:16:50.661Z,0
2017-04-06T02:17:59.613Z,0
2017-04-06T02:19:08.573Z,0
2017-04-06T02:20:17.776Z,0
2017-04-06T02:21:26.732Z,0
2017-04-06T02:22:35.680Z,0
2017-04-06T02:23:44.628Z,0
2017-04-06T02:24:53.579Z,0
2017-04-06T02:26:02.778Z,0
2017-04-06T02:27:11.759Z,0
2017-04-06T02:28:20.709Z,0
2017-04-06T02:29:29.661Z,0
2017-04-06T02:30:38.615Z,0
2017-04-06T02:31:47.822Z,0
2017-04-06T02:32:56.859Z,0
2017-04-06T02:34:05.817Z,0
2017-04-06T02:35:14.772Z,0
2017-04-06T02:36:23.811Z,0
2017-04-06T02:37:33.011Z,0
2017-04-06T02:38:41.964Z,0
2017-04-06T02:39:50.914Z,0
2017-04-06T02:40:59.867Z,0
2017-04-06T02:42:08.823Z,0
2017-04-06T02:43:18.025Z,0
2017-04-06T02:44:26.974Z,0
2017-04-06T02:45:35.925Z,0
2017-04-06T02:46:44.875Z,0
2017-04-06T02:47:53.827Z,0
2017-04-06T02:49:03.033Z,0
2017-04-06T02:50:11.980Z,0
2017-04-06T02:51:20.935Z,0
2017-04-06T02:52:29.881Z,0
2017-04-06T02:53:38.826Z,0
2017-04-06T02:54:48.028Z,0
2017-04-06T02:55:56.977Z,0
2017-04-06T02:57:05.936Z,0
2017-04-06T02:58:14.899Z,0
2017-04-06T02:59:23.854Z,0
2017-04-06T03:00:33.070Z,0
2017-04-06T03:01:42.342Z,0
2017-04-06T03:02:51.299Z,0
2017-04-06T03:04:00.252Z,0
2017-04-06T03:05:09.211Z,0
2017-04-06T03:06:18.464Z,0
2017-04-06T03:07:27.419Z,0
2017-04-06T03:08:36.369Z,0
2017-04-06T03:09:45.319Z,0
2017-04-06T03:10:54.267Z,0
2017-04-06T03:12:03.519Z,0
2017-04-06T03:13:12.476Z,0
2017-04-06T03:14:21.749Z,0
2017-04-06T03:15:30.699Z,0
2017-04-06T03:16:39.987Z,0
2017-04-06T03:17:49.192Z,0
2017-04-06T03:18:58.138Z,0
2017-04-06T03:20:07.177Z,0
2017-04-06T03:21:16.152Z,0
2017-04-06T03:22:25.105Z,0
2017-04-06T03:23:34.308Z,0
2017-04-06T03:24:43.258Z,0
2017-04-06T03:25:52.210Z,0
2017-04-06T03:27:01.162Z,0
2017-04-06T03:28:10.113Z,0
2017-04-06T03:29:19.634Z,0
2017-04-06T03:30:28.586Z,0
2017-04-06T03:31:37.872Z,0
2017-04-06T03:32:46.820Z,0
2017-04-06T03:33:55.859Z,0
2017-04-06T03:35:05.066Z,0
2017-04-06T03:36:14.014Z,0
2017-04-06T03:37:22.964Z,0
2017-04-06T03:38:31.911Z,0
2017-04-06T03:39:40.870Z,0
2017-04-06T03:40:50.075Z,0
2017-04-06T03:41:59.029Z,0
2017-04-06T03:43:07.988Z,0
2017-04-06T03:44:16.941Z,0
2017-04-06T03:45:25.893Z,0
2017-04-06T03:46:35.108Z,0
2017-04-06T03:47:44.091Z,0
2017-04-06T03:48:53.041Z,0
2017-04-06T03:50:02.076Z,0
2017-04-06T03:51:11.029Z,0
2017-04-06T03:52:20.234Z,0
2017-04-06T03:53:29.183Z,0
2017-04-06T03:54:38.134Z,0
2017-04-06T03:55:47.087Z,0
2017-04-06T03:56:56.038Z,0
2017-04-06T03:58:05.288Z,0
2017-04-06T03:59:14.250Z,0
2017-04-06T04:00:23.192Z,0
2017-04-06T04:01:32.144Z,0
2017-04-06T04:02:41.092Z,0
2017-04-06T04:03:50.291Z,0
2017-04-06T04:04:59.253Z,0
2017-04-06T04:06:08.211Z,0
2017-04-06T04:07:17.162Z,0
2017-04-06T04:08:26.109Z,0
2017-04-06T04:09:35.306Z,0
2017-04-06T04:10:44.258Z,0
2017-04-06T04:11:53.212Z,0
2017-04-06T04:13:02.164Z,0
2017-04-06T04:14:11.120Z,0
2017-04-06T04:15:20.323Z,0
2017-04-06T04:16:29.309Z,0
2017-04-06T04:17:38.262Z,0
2017-04-06T04:18:47.210Z,0
2017-04-06T04:19:56.163Z,0
2017-04-06T04:21:05.442Z,0
2017-04-06T04:22:14.392Z,0
2017-04-06T04:23:23.341Z,0
2017-04-06T04:24:32.313Z,0
2017-04-06T04:25:41.262Z,0
2017-04-06T04:26:50.467Z,0
2017-04-06T04:27:59.425Z,0
2017-04-06T04:29:08.379Z,0
2017-04-06T04:30:17.329Z,0
2017-04-06T04:31:26.283Z,0
2017-04-06T04:32:35.491Z,0
2017-04-06T04:33:44.440Z,5
2017-04-06T04:34:53.491Z,5
2017-04-06T04:36:02.444Z,5
2017-04-06T04:37:11.405Z,5
2017-04-06T04:38:20.660Z,5
2017-04-06T04:39:29.612Z,5
2017-04-06T04:40:38.573Z,5
2017-04-06T04:41:47.534Z,5
2017-04-06T04:42:56.484Z,5
2017-04-06T04:44:05.710Z,5
2017-04-06T04:45:14.672Z,5
2017-04-06T04:46:23.625Z,5
2017-04-06T04:47:32.586Z,5
2017-04-06T04:48:41.862Z,5
2017-04-06T04:49:51.064Z,10
2017-04-06T04:51:00.016Z,10
2017-04-06T04:52:09.056Z,10
2017-04-06T04:53:18.085Z,10
2017-04-06T04:54:27.058Z,10
2017-04-06T04:55:36.306Z,15
2017-04-06T04:56:45.259Z,15
2017-04-06T04:57:54.208Z,15
2017-04-06T04:59:03.154Z,15
2017-04-06T05:00:12.109Z,15
2017-04-06T05:01:21.316Z,15
2017-04-06T05:02:30.271Z,20
2017-04-06T05:03:39.309Z,25
2017-04-06T05:04:48.270Z,20
2017-04-06T05:05:57.224Z,25
2017-04-06T05:07:06.435Z,25
2017-04-06T05:08:15.386Z,25
2017-04-06T05:09:24.337Z,25
2017-04-06T05:10:33.288Z,25
2017-04-06T05:11:42.239Z,25
2017-04-06T05:12:51.560Z,25
2017-04-06T05:14:00.635Z,25
2017-04-06T05:15:09.594Z,25
2017-04-06T05:16:18.656Z,30
2017-04-06T05:17:27.609Z,25
2017-04-06T05:18:36.809Z,25
2017-04-06T05:19:45.760Z,35
2017-04-06T05:20:54.711Z,35
2017-04-06T05:22:03.663Z,35
2017-04-06T05:23:12.937Z,35
2017-04-06T05:24:22.135Z,35
2017-04-06T05:25:31.089Z,35
2017-04-06T05:26:40.055Z,30
2017-04-06T05:27:49.107Z,30
2017-04-06T05:28:58.055Z,30
2017-04-06T05:30:07.254Z,40
2017-04-06T05:31:16.207Z,40
2017-04-06T05:32:25.155Z,30
2017-04-06T05:33:34.109Z,30
2017-04-06T05:34:43.061Z,30
2017-04-06T05:35:52.265Z,35
2017-04-06T05:37:01.214Z,35
2017-04-06T05:38:10.253Z,30
2017-04-06T05:39:19.202Z,35
2017-04-06T05:40:28.352Z,35
2017-04-06T05:41:38.694Z,45
2017-04-06T05:42:47.644Z,55
2017-04-06T05:43:56.598Z,40
2017-04-06T05:45:05.554Z,35
2017-04-06T05:46:14.503Z,40
2017-04-06T05:47:23.707Z,45
2017-04-06T05:48:32.657Z,70
2017-04-06T05:49:42.794Z,45
2017-04-06T05:50:51.749Z,35
2017-04-06T05:52:00.712Z,40
2017-04-06T05:53:09.920Z,50
2017-04-06T05:54:18.875Z,55
2017-04-06T05:55:27.825Z,75
2017-04-06T05:56:36.783Z,65
2017-04-06T05:57:45.733Z,85
2017-04-06T05:58:54.934Z,50
2017-04-06T06:00:03.885Z,45
2017-04-06T06:01:12.927Z,45
2017-04-06T06:02:21.901Z,55
2017-04-06T06:03:30.851Z,70
2017-04-06T06:04:40.053Z,65
2017-04-06T06:05:49.091Z,50
2017-04-06T06:06:58.046Z,40
2017-04-06T06:08:07.234Z,50
2017-04-06T06:09:16.516Z,50
2017-04-06T06:10:25.716Z,55
2017-04-06T06:11:34.667Z,50
2017-04-06T06:12:43.624Z,50
2017-04-06T06:13:52.661Z,50
2017-04-06T06:15:01.626Z,55
2017-04-06T06:16:10.891Z,45
2017-04-06T06:17:19.849Z,55
2017-04-06T06:18:29.129Z,55
2017-04-06T06:19:38.076Z,55
2017-04-06T06:20:47.515Z,55
2017-04-06T06:21:56.900Z,55
2017-04-06T06:23:05.877Z,55
2017-04-06T06:24:14.837Z,55
2017-04-06T06:25:23.794Z,60
2017-04-06T06:26:32.751Z,55
2017-04-06T06:27:42.044Z,50
2017-04-06T06:28:50.994Z,80
2017-04-06T06:30:00.028Z,60
2017-04-06T06:31:09.004Z,60
2017-04-06T06:32:18.038Z,60
2017-04-06T06:33:27.243Z,60
2017-04-06T06:34:36.207Z,60
2017-04-06T06:35:45.248Z,65
2017-04-06T06:36:54.205Z,50
2017-04-06T06:38:03.155Z,70
2017-04-06T06:39:12.444Z,65
2017-04-06T06:40:21.394Z,65
2017-04-06T06:41:30.344Z,60
2017-04-06T06:42:39.306Z,65
2017-04-06T06:43:48.582Z,70
2017-04-06T06:44:57.874Z,90
2017-04-06T06:46:06.826Z,70
2017-04-06T06:47:15.780Z,70
2017-04-06T06:48:24.751Z,85
2017-04-06T06:49:33.702Z,65
2017-04-06T06:50:42.908Z,65
2017-04-06T06:51:51.885Z,65
2017-04-06T06:53:00.886Z,70
2017-04-06T06:54:09.859Z,70
2017-04-06T06:55:18.833Z,70
2017-04-06T06:56:28.059Z,70
2017-04-06T06:57:37.032Z,70
2017-04-06T06:58:46.011Z,75
2017-04-06T06:59:55.085Z,85
2017-04-06T07:01:04.061Z,70
2017-04-06T07:02:13.287Z,70
2017-04-06T07:03:22.256Z,75
2017-04-06T07:04:31.232Z,70
2017-04-06T07:05:40.214Z,70
2017-04-06T07:06:49.213Z,75
2017-04-06T07:07:58.455Z,65
2017-04-06T07:09:07.519Z,70
2017-04-06T07:10:16.495Z,70
2017-04-06T07:11:25.472Z,70
2017-04-06T07:12:34.452Z,70
2017-04-06T07:13:43.676Z,70
2017-04-06T07:14:52.650Z,70
2017-04-06T07:16:01.623Z,75
2017-04-06T07:17:10.599Z,75
2017-04-06T07:18:19.582Z,75
2017-04-06T07:19:28.809Z,75
2017-04-06T07:20:37.904Z,75
2017-04-06T07:21:46.883Z,75
2017-04-06T07:22:56.034Z,75
2017-04-06T07:24:05.098Z,75
2017-04-06T07:25:14.326Z,75
2017-04-06T07:26:23.301Z,80
2017-04-06T07:27:32.278Z,80
2017-04-06T07:28:41.350Z,80
2017-04-06T07:29:50.322Z,80
2017-04-06T07:30:59.550Z,75
2017-04-06T07:32:08.529Z,75
2017-04-06T07:33:17.501Z,80
2017-04-06T07:34:26.557Z,80
2017-04-06T07:35:35.535Z,80
2017-04-06T07:36:44.758Z,80
2017-04-06T07:37:53.730Z,90
2017-04-06T07:39:02.705Z,85
2017-04-06T07:40:11.683Z,80
2017-04-06T07:41:20.657Z,80
2017-04-06T07:42:29.883Z,80
2017-04-06T07:43:38.942Z,80
2017-04-06T07:44:47.919Z,80
2017-04-06T07:45:56.891Z,80
2017-04-06T07:47:05.869Z,80
2017-04-06T07:48:15.099Z,80
2017-04-06T07:49:24.071Z,80
2017-04-06T07:50:33.069Z,80
2017-04-06T07:51:42.368Z,80
2017-04-06T07:52:51.344Z,80
2017-04-06T07:54:00.573Z,80
2017-04-06T07:55:09.634Z,80
2017-04-06T07:56:18.702Z,80
2017-04-06T07:57:27.695Z,80
2017-04-06T07:58:36.770Z,80
2017-04-06T07:59:46.085Z,80
2017-04-06T08:00:55.067Z,80
2017-04-06T08:02:04.144Z,80
2017-04-06T08:03:13.122Z,80
2017-04-06T08:04:22.094Z,80
2017-04-06T08:05:31.325Z,80
2017-04-06T08:06:40.311Z,80
2017-04-06T08:07:49.300Z,80
2017-04-06T08:08:58.276Z,80
2017-04-06T08:10:07.256Z,80
2017-04-06T08:11:16.533Z,80
2017-04-06T08:12:25.598Z,80
2017-04-06T08:13:34.669Z,80
2017-04-06T08:14:43.642Z,85
2017-04-06T08:15:52.616Z,80
2017-04-06T08:17:01.892Z,80
2017-04-06T08:18:10.853Z,85
2017-04-06T08:19:19.968Z,85
2017-04-06T08:20:29.049Z,85
2017-04-06T08:21:38.001Z,85
2017-04-06T08:22:47.208Z,85
2017-04-06T08:23:56.245Z,85
2017-04-06T08:25:05.283Z,85
2017-04-06T08:26:14.240Z,85
2017-04-06T08:27:23.222Z,80
2017-04-06T08:28:32.431Z,85
2017-04-06T08:29:41.382Z,85
2017-04-06T08:30:50.341Z,85
2017-04-06T08:31:59.410Z,80
2017-04-06T08:33:08.609Z,80
2017-04-06T08:34:18.205Z,80
2017-04-06T08:35:27.313Z,85
2017-04-06T08:36:36.605Z,80
2017-04-06T08:37:45.733Z,80
2017-04-06T08:38:54.746Z,80
2017-04-06T08:40:04.178Z,80
2017-04-06T08:41:13.556Z,80
2017-04-06T08:42:22.555Z,80
2017-04-06T08:43:31.581Z,80
2017-04-06T08:44:40.925Z,80
2017-04-06T08:45:50.564Z,80
2017-04-06T08:46:59.920Z,80
2017-04-06T08:48:09.397Z,80
2017-04-06T08:49:18.464Z,85
2017-04-06T08:50:27.625Z,85
2017-04-06T08:51:36.838Z,80
2017-04-06T08:52:45.997Z,85
2017-04-06T08:53:55.269Z,85
2017-04-06T08:55:04.227Z,80
2017-04-06T08:56:13.234Z,85
2017-04-06T08:57:22.442Z,80
2017-04-06T08:58:31.399Z,80
2017-04-06T08:59:40.356Z,90
2017-04-06T09:00:49.323Z,100
2017-04-06T09:01:58.652Z,110
2017-04-06T09:03:08.044Z,85
2017-04-06T09:04:17.319Z,85
2017-04-06T09:05:26.546Z,95
2017-04-06T09:06:35.713Z,85
2017-04-06T09:07:45.025Z,80
2017-04-06T09:08:54.604Z,90
2017-04-06T09:10:03.564Z,100
2017-04-06T09:11:12.522Z,85
2017-04-06T09:12:21.480Z,85
2017-04-06T09:13:30.496Z,85
2017-04-06T09:14:40.044Z,85
2017-04-06T09:15:49.100Z,85
2017-04-06T09:16:58.382Z,85
2017-04-06T09:18:07.331Z,90
2017-04-06T09:19:16.286Z,90
2017-04-06T09:20:25.490Z,90
2017-04-06T09:21:34.446Z,90
2017-04-06T09:22:43.396Z,90
2017-04-06T09:23:52.517Z,100
2017-04-06T09:25:01.560Z,100
2017-04-06T09:26:10.763Z,75
2017-04-06T09:27:20.047Z,95
2017-04-06T09:28:28.998Z,95
2017-04-06T09:29:37.950Z,90
2017-04-06T09:30:46.914Z,95
2017-04-06T09:31:56.165Z,95
2017-04-06T09:33:05.127Z,60
2017-04-06T09:34:14.166Z,90
2017-04-06T09:35:23.118Z,90
2017-04-06T09:36:32.074Z,90
2017-04-06T09:37:41.278Z,90
2017-04-06T09:38:50.327Z,100
2017-04-06T09:39:59.279Z,110
2017-04-06T09:41:08.232Z,100
2017-04-06T09:42:17.186Z,100
2017-04-06T09:43:26.416Z,100
2017-04-06T09:44:35.710Z,95
2017-04-06T09:45:44.662Z,95
2017-04-06T09:46:53.617Z,100
2017-04-06T09:48:02.572Z,120
2017-04-06T09:49:11.777Z,150
2017-04-06T09:50:20.730Z,190
2017-04-06T09:51:29.687Z,210
2017-04-06T09:52:38.644Z,195
2017-04-06T09:53:47.596Z,160
2017-04-06T09:54:56.933Z,135
2017-04-06T09:56:05.979Z,120
2017-04-06T09:57:14.934Z,130
2017-04-06T09:58:23.976Z,125
2017-04-06T09:59:32.931Z,115
2017-04-06T10:00:42.548Z,130
2017-04-06T10:01:51.506Z,105
2017-04-06T10:03:00.494Z,105
2017-04-06T10:04:09.474Z,120
2017-04-06T10:05:18.428Z,135
2017-04-06T10:06:27.631Z,120
2017-04-06T10:07:36.588Z,130
2017-04-06T10:08:45.542Z,145
2017-04-06T10:09:54.506Z,160
2017-04-06T10:11:03.559Z,170
2017-04-06T10:12:12.854Z,160
2017-04-06T10:13:21.880Z,110
2017-04-06T10:14:30.836Z,140
2017-04-06T10:15:39.789Z,125
2017-04-06T10:16:48.812Z,120
2017-04-06T10:17:58.020Z,125
2017-04-06T10:19:07.037Z,95
2017-04-06T10:20:16.361Z,65
2017-04-06T10:21:25.321Z,100
2017-04-06T10:22:34.277Z,100
2017-04-06T10:23:43.480Z,110
2017-04-06T10:24:52.438Z,95
2017-04-06T10:26:01.392Z,180
2017-04-06T10:27:10.346Z,190
2017-04-06T10:28:19.308Z,200
2017-04-06T10:29:28.521Z,165
2017-04-06T10:30:37.478Z,135
2017-04-06T10:31:46.433Z,170
2017-04-06T10:32:55.474Z,150
2017-04-06T10:34:04.528Z,155
2017-04-06T10:35:13.733Z,155
2017-04-06T10:36:22.691Z,160
2017-04-06T10:37:31.645Z,180
2017-04-06T10:38:40.599Z,145
2017-04-06T10:39:49.733Z,135
2017-04-06T10:40:58.973Z,90
2017-04-06T10:42:07.932Z,115
2017-04-06T10:43:16.886Z,110
2017-04-06T10:44:25.845Z,90
2017-04-06T10:45:34.891Z,125
2017-04-06T10:46:44.262Z,215
2017-04-06T10:47:53.308Z,185
2017-04-06T10:49:02.262Z,145
2017-04-06T10:50:11.220Z,145
2017-04-06T10:51:20.210Z,145
2017-04-06T10:52:29.470Z,115
2017-04-06T10:53:38.458Z,135
2017-04-06T10:54:48.064Z,85
2017-04-06T10:55:57.019Z,105
2017-04-06T10:57:05.974Z,120
2017-04-06T10:58:15.227Z,110
2017-04-06T10:59:24.187Z,155
2017-04-06T11:00:33.147Z,170
2017-04-06T11:01:42.102Z,175
2017-04-06T11:02:51.147Z,170
2017-04-06T11:04:00.404Z,130
2017-04-06T11:05:09.367Z,100
2017-04-06T11:06:18.322Z,140
2017-04-06T11:07:27.280Z,125
2017-04-06T11:08:36.324Z,120
2017-04-06T11:09:45.528Z,120
2017-04-06T11:10:54.485Z,70
2017-04-06T11:12:03.445Z,60
2017-04-06T11:13:12.405Z,65
2017-04-06T11:14:21.449Z,65
2017-04-06T11:15:30.662Z,70
2017-04-06T11:16:39.706Z,75
2017-04-06T11:17:48.661Z,135
2017-04-06T11:18:57.615Z,170
2017-04-06T11:20:06.574Z,180
2017-04-06T11:21:15.779Z,190
2017-04-06T11:22:24.826Z,170
2017-04-06T11:23:33.956Z,135
2017-04-06T11:24:42.912Z,140
2017-04-06T11:25:51.955Z,105
2017-04-06T11:27:01.214Z,90
2017-04-06T11:28:10.170Z,110
2017-04-06T11:29:19.125Z,130
2017-04-06T11:30:28.074Z,125
2017-04-06T11:31:37.030Z,105
2017-04-06T11:32:46.285Z,140
2017-04-06T11:33:55.237Z,115
2017-04-06T11:35:04.198Z,115
2017-04-06T11:36:13.156Z,110
2017-04-06T11:37:22.115Z,115
2017-04-06T11:38:31.323Z,130
2017-04-06T11:39:40.278Z,140
2017-04-06T11:40:49.324Z,120
2017-04-06T11:41:58.279Z,155
2017-04-06T11:43:07.329Z,105
2017-04-06T11:44:16.540Z,140
2017-04-06T11:45:25.500Z,130
2017-04-06T11:46:34.456Z,180
2017-04-06T11:47:43.417Z,145
2017-04-06T11:48:52.372Z,140
2017-04-06T11:50:01.803Z,185
2017-04-06T11:51:10.934Z,165
2017-04-06T11:52:19.895Z,160
2017-04-06T11:53:28.854Z,185
2017-04-06T11:54:37.813Z,190
2017-04-06T11:55:47.354Z,185
2017-04-06T11:56:56.313Z,180
2017-04-06T11:58:05.268Z,140
2017-04-06T11:59:14.316Z,145
2017-04-06T12:00:23.278Z,95
2017-04-06T12:01:32.491Z,135
2017-04-06T12:02:41.449Z,110
2017-04-06T12:03:50.416Z,130
2017-04-06T12:04:59.369Z,130
2017-04-06T12:06:08.326Z,145
2017-04-06T12:07:17.533Z,125
2017-04-06T12:08:26.576Z,105
2017-04-06T12:09:35.864Z,95
2017-04-06T12:10:44.824Z,85
2017-04-06T12:11:53.790Z,125
2017-04-06T12:13:02.998Z,135
2017-04-06T12:14:11.957Z,110
2017-04-06T12:15:20.913Z,95
2017-04-06T12:16:29.862Z,95
2017-04-06T12:17:38.815Z,95
2017-04-06T12:18:48.075Z,140
2017-04-06T12:19:57.120Z,105
2017-04-06T12:21:06.076Z,125
2017-04-06T12:22:15.034Z,125
2017-04-06T12:23:23.991Z,125
2017-04-06T12:24:33.197Z,175
2017-04-06T12:25:42.417Z,190
2017-04-06T12:26:51.370Z,200
2017-04-06T12:28:01.998Z,215
2017-04-06T12:29:11.658Z,175
2017-04-06T12:30:20.919Z,160
2017-04-06T12:31:29.884Z,185
2017-04-06T12:32:38.843Z,180
2017-04-06T12:33:47.802Z,165
2017-04-06T12:34:56.761Z,150
2017-04-06T12:36:05.977Z,155
2017-04-06T12:37:15.030Z,185
2017-04-06T12:38:23.989Z,190
2017-04-06T12:39:32.944Z,200
2017-04-06T12:40:41.900Z,170
2017-04-06T12:41:51.105Z,160
2017-04-06T12:43:00.149Z,155
2017-04-06T12:44:09.109Z,205
2017-04-06T12:45:18.098Z,205
2017-04-06T12:46:27.702Z,150
2017-04-06T12:47:36.908Z,140
2017-04-06T12:48:45.858Z,155
2017-04-06T12:49:54.813Z,120
2017-04-06T12:51:03.775Z,90
2017-04-06T12:52:12.734Z,85
2017-04-06T12:53:22.032Z,100
2017-04-06T12:54:32.286Z,110
2017-04-06T12:55:41.842Z,115
2017-04-06T12:56:50.801Z,75
2017-04-06T12:57:59.754Z,75
2017-04-06T12:59:09.707Z,75
2017-04-06T13:00:18.663Z,80
2017-04-06T13:01:27.625Z,80
2017-04-06T13:02:36.600Z,75
2017-04-06T13:03:45.552Z,110
2017-04-06T13:04:55.040Z,105
2017-04-06T13:06:03.998Z,105
2017-04-06T13:07:12.953Z,115
2017-04-06T13:08:22.038Z,120
2017-04-06T13:09:30.996Z,120
2017-04-06T13:10:40.207Z,100
2017-04-06T13:11:49.167Z,165
2017-04-06T13:12:59.813Z,170
2017-04-06T13:14:09.535Z,140
2017-04-06T13:15:18.508Z,150
2017-04-06T13:16:28.044Z,145
2017-04-06T13:17:37.010Z,140
2017-04-06T13:18:46.297Z,125
2017-04-06T13:19:55.345Z,100
2017-04-06T13:21:04.395Z,105
2017-04-06T13:22:13.604Z,140
2017-04-06T13:23:22.562Z,135
2017-04-06T13:24:31.519Z,135
2017-04-06T13:25:40.484Z,135
2017-04-06T13:26:49.446Z,135
2017-04-06T13:27:58.661Z,130
2017-04-06T13:29:07.796Z,135
2017-04-06T13:30:16.752Z,105
2017-04-06T13:31:25.734Z,145
2017-04-06T13:32:34.780Z,145
2017-04-06T13:33:44.000Z,165
2017-04-06T13:34:52.962Z,180
2017-04-06T13:36:02.259Z,180
2017-04-06T13:37:11.223Z,160
2017-04-06T13:38:20.183Z,145
2017-04-06T13:39:29.454Z,145
2017-04-06T13:40:38.502Z,145
2017-04-06T13:41:47.464Z,135
2017-04-06T13:42:56.426Z,135
2017-04-06T13:44:05.389Z,140
2017-04-06T13:45:14.599Z,140
2017-04-06T13:46:23.558Z,135
2017-04-06T13:47:32.517Z,130
2017-04-06T13:48:41.555Z,120
2017-04-06T13:49:50.598Z,110
2017-04-06T13:50:59.895Z,115
2017-04-06T13:52:08.851Z,110
2017-04-06T13:53:17.835Z,105
2017-04-06T13:54:26.818Z,115
2017-04-06T13:55:35.793Z,125
2017-04-06T13:56:45.030Z,120
2017-04-06T13:57:54.006Z,110
2017-04-06T13:59:02.992Z,100
2017-04-06T14:00:11.971Z,100
2017-04-06T14:01:20.952Z,95
2017-04-06T14:02:30.184Z,95
2017-04-06T14:03:39.169Z,105
2017-04-06T14:04:48.141Z,120
2017-04-06T14:05:57.122Z,135
2017-04-06T14:07:06.189Z,145
2017-04-06T14:08:15.423Z,115
2017-04-06T14:09:24.408Z,155
2017-04-06T14:10:33.386Z,150
2017-04-06T14:11:42.364Z,150
2017-04-06T14:12:51.355Z,155
2017-04-06T14:14:00.591Z,150
2017-04-06T14:15:09.576Z,150
2017-04-06T14:16:18.568Z,145
2017-04-06T14:17:27.554Z,150
2017-04-06T14:18:36.541Z,150
2017-04-06T14:19:45.828Z,130
2017-04-06T14:20:54.815Z,130
2017-04-06T14:22:03.801Z,110
2017-04-06T14:23:12.776Z,95
2017-04-06T14:24:21.759Z,85
2017-04-06T14:25:31.141Z,100
2017-04-06T14:26:40.135Z,70
2017-04-06T14:27:49.124Z,70
2017-04-06T14:28:58.114Z,75
2017-04-06T14:30:07.102Z,75
2017-04-06T14:31:16.363Z,105
2017-04-06T14:32:25.322Z,100
2017-04-06T14:33:34.275Z,95
2017-04-06T14:34:43.239Z,90
2017-04-06T14:35:52.198Z,95
2017-04-06T14:37:02.134Z,95
2017-04-06T14:38:11.177Z,100
2017-04-06T14:39:20.239Z,95
2017-04-06T14:40:29.234Z,105
2017-04-06T14:41:38.192Z,110
2017-04-06T14:42:47.401Z,90
2017-04-06T14:43:56.358Z,85
2017-04-06T14:45:05.343Z,75
2017-04-06T14:46:14.297Z,75
2017-04-06T14:47:23.259Z,75
2017-04-06T14:48:32.516Z,80
2017-04-06T14:49:41.476Z,85
2017-04-06T14:50:50.434Z,85
2017-04-06T14:51:59.423Z,85
2017-04-06T14:53:08.379Z,85
2017-04-06T14:54:17.582Z,90
2017-04-06T14:55:26.538Z,90
2017-04-06T14:56:35.519Z,100
2017-04-06T14:57:44.482Z,80
2017-04-06T14:58:53.435Z,85
2017-04-06T15:00:02.638Z,105
2017-04-06T15:01:11.689Z,115
2017-04-06T15:02:20.662Z,90
2017-04-06T15:03:29.620Z,90
2017-04-06T15:04:38.574Z,90
2017-04-06T15:05:47.915Z,90
2017-04-06T15:06:57.200Z,90
2017-04-06T15:08:06.336Z,90
2017-04-06T15:09:15.292Z,85
2017-04-06T15:10:24.247Z,85
2017-04-06T15:11:33.507Z,85
2017-04-06T15:12:42.884Z,85
2017-04-06T15:13:51.840Z,85
2017-04-06T15:15:01.121Z,85
2017-04-06T15:16:10.086Z,90
2017-04-06T15:17:19.296Z,95
2017-04-06T15:18:28.256Z,95
2017-04-06T15:19:37.301Z,90
2017-04-06T15:20:46.261Z,95
2017-04-06T15:21:55.218Z,95
2017-04-06T15:23:04.428Z,100
2017-04-06T15:24:13.482Z,95
2017-04-06T15:25:22.437Z,90
2017-04-06T15:26:31.394Z,85
2017-04-06T15:27:40.352Z,85
2017-04-06T15:28:49.559Z,85
2017-04-06T15:29:58.521Z,85
2017-04-06T15:31:07.569Z,85
2017-04-06T15:32:16.555Z,85
2017-04-06T15:33:25.979Z,80
2017-04-06T15:34:35.788Z,80
2017-04-06T15:35:44.750Z,80
2017-04-06T15:36:53.709Z,85
2017-04-06T15:38:02.666Z,80
2017-04-06T15:39:11.640Z,85
2017-04-06T15:40:20.910Z,90
2017-04-06T15:41:29.866Z,100
2017-04-06T15:42:38.823Z,100
2017-04-06T15:43:47.790Z,100
2017-04-06T15:44:56.744Z,100
2017-04-06T15:46:05.952Z,95
2017-04-06T15:47:15.232Z,85
2017-04-06T15:48:24.190Z,85
2017-04-06T15:49:33.156Z,80
2017-04-06T15:50:42.196Z,70
2017-04-06T15:51:51.402Z,70
2017-04-06T15:53:00.359Z,65
2017-04-06T15:54:09.317Z,65
2017-04-06T15:55:18.358Z,60
2017-04-06T15:56:27.316Z,60
2017-04-06T15:57:36.525Z,60
2017-04-06T15:58:45.479Z,60
2017-04-06T15:59:54.439Z,60
2017-04-06T16:01:03.402Z,60
2017-04-06T16:02:12.686Z,60
2017-04-06T16:03:21.891Z,60
2017-04-06T16:04:30.935Z,60
2017-04-06T16:05:39.902Z,60
2017-04-06T16:06:48.882Z,60
2017-04-06T16:07:57.926Z,65
2017-04-06T16:09:07.182Z,65
2017-04-06T16:10:16.224Z,65
2017-04-06T16:11:25.212Z,65
2017-04-06T16:12:34.179Z,60
2017-04-06T16:13:43.137Z,55
2017-04-06T16:14:52.360Z,50
2017-04-06T16:16:01.314Z,45
2017-04-06T16:17:10.271Z,45
2017-04-06T16:18:19.225Z,40
2017-04-06T16:19:28.281Z,40
2017-04-06T16:20:37.544Z,40
2017-04-06T16:21:46.507Z,40
2017-04-06T16:22:55.571Z,35
2017-04-06T16:24:04.693Z,35
2017-04-06T16:25:13.773Z,30
2017-04-06T16:26:23.323Z,35